Time;durP1;ratioP1;P1;durP2;ratioP2;P2;SDS_P1;SDS_P2;PMS_P1;PMS_P2;Temp;Humidity;BMP_temperature;BMP_pressure;BME280_temperature;BME280_humidity;BME280_pressure;Samples;Min_cycle;Max_cycle;Signal;HPM_P1;HPM_P2
2023/11/24 00:01:39;;;;;;;5.28;2.10;;;6.70;99.90;;;;;;5058422;28;20202;-63
2023/11/24 00:04:06;;;;;;;8.80;3.08;;;6.80;99.90;;;;;;5059267;28;20228;-62
2023/11/24 00:06:33;;;;;;;6.70;2.15;;;6.70;99.90;;;;;;5057774;28;20205;-62
2023/11/24 00:09:00;;;;;;;6.15;1.63;;;6.70;99.90;;;;;;5056484;28;20247;-62
2023/11/24 00:11:27;;;;;;;5.72;1.63;;;6.70;99.90;;;;;;5057940;28;20201;-62
2023/11/24 00:13:55;;;;;;;6.35;1.63;;;6.70;99.90;;;;;;5056252;28;20205;-62
2023/11/24 00:16:22;;;;;;;11.23;3.28;;;6.70;99.90;;;;;;5054644;28;20189;-62
2023/11/24 00:18:49;;;;;;;6.10;1.83;;;6.70;99.90;;;;;;5053391;28;20222;-63
2023/11/24 00:21:17;;;;;;;10.13;2.55;;;6.70;99.90;;;;;;5053550;28;20202;-63
2023/11/24 00:23:45;;;;;;;5.15;1.95;;;6.70;99.90;;;;;;5053798;28;20204;-62
2023/11/24 00:26:11;;;;;;;6.45;2.17;;;6.70;99.90;;;;;;5054127;28;20230;-63
2023/11/24 00:28:39;;;;;;;9.80;2.47;;;6.80;99.90;;;;;;5056785;28;20194;-63
2023/11/24 00:31:09;;;;;;;8.23;2.90;;;6.80;99.90;;;;;;5057990;28;20675;-61
2023/11/24 00:33:36;;;;;;;7.82;2.30;;;6.80;99.90;;;;;;5058150;28;20566;-62
2023/11/24 00:36:03;;;;;;;9.07;2.20;;;6.90;99.90;;;;;;5058193;28;20312;-61
2023/11/24 00:38:29;;;;;;;7.97;2.58;;;6.90;99.90;;;;;;5058140;28;20234;-63
2023/11/24 00:40:56;;;;;;;10.68;2.42;;;6.90;99.90;;;;;;5063942;28;20189;-62
2023/11/24 00:43:23;;;;;;;6.35;2.08;;;6.90;99.90;;;;;;5075035;28;20201;-63
2023/11/24 00:45:50;;;;;;;6.35;1.90;;;6.90;99.90;;;;;;5058235;28;20245;-62
2023/11/24 00:48:20;;;;;;;6.90;1.85;;;6.90;99.90;;;;;;5057119;28;20672;-63
2023/11/24 00:50:46;;;;;;;7.57;2.08;;;6.80;99.90;;;;;;5057426;28;20205;-62
2023/11/24 00:53:13;;;;;;;5.63;1.95;;;6.80;99.90;;;;;;5056843;28;20697;-63
2023/11/24 00:55:40;;;;;;;6.13;1.75;;;6.80;99.90;;;;;;5056976;28;20222;-63
2023/11/24 00:58:07;;;;;;;5.10;1.75;;;6.70;99.90;;;;;;5057420;28;20218;-63
2023/11/24 01:00:33;;;;;;;6.93;1.60;;;6.60;99.90;;;;;;5057464;28;20205;-63
2023/11/24 01:03:00;;;;;;;8.18;2.00;;;6.50;99.90;;;;;;5057333;28;20232;-62
2023/11/24 01:05:28;;;;;;;6.97;1.95;;;6.40;99.90;;;;;;5056844;28;20711;-62
2023/11/24 01:07:55;;;;;;;4.63;1.40;;;6.40;99.90;;;;;;5056945;28;20202;-62
2023/11/24 01:10:22;;;;;;;8.20;2.58;;;6.40;99.90;;;;;;5056758;28;20206;-62
2023/11/24 01:12:49;;;;;;;9.20;2.47;;;6.40;99.90;;;;;;5057442;28;20205;-63
2023/11/24 01:15:16;;;;;;;7.03;2.50;;;6.40;99.90;;;;;;5057360;28;20233;-62
2023/11/24 01:17:44;;;;;;;13.15;2.63;;;6.40;99.90;;;;;;5057537;28;20311;-63
2023/11/24 01:20:11;;;;;;;7.35;1.95;;;6.40;99.90;;;;;;5057425;28;20293;-63
2023/11/24 01:22:40;;;;;;;7.47;2.17;;;6.40;99.90;;;;;;5057178;28;20217;-62
2023/11/24 01:25:08;;;;;;;6.38;1.95;;;6.40;99.90;;;;;;5056902;28;20228;-63
2023/11/24 01:27:35;;;;;;;6.85;2.20;;;6.40;99.90;;;;;;5057051;28;20591;-62
2023/11/24 01:30:02;;;;;;;13.02;2.15;;;6.30;99.90;;;;;;5057028;28;20210;-62
2023/11/24 01:32:29;;;;;;;5.97;2.25;;;6.30;99.90;;;;;;5058536;28;20210;-62
2023/11/24 01:34:56;;;;;;;4.95;1.40;;;6.30;99.90;;;;;;5061069;28;20225;-62
2023/11/24 01:37:23;;;;;;;11.07;1.70;;;6.30;99.90;;;;;;5058648;28;20233;-62
2023/11/24 01:39:51;;;;;;;7.03;2.17;;;6.20;99.90;;;;;;5057082;28;20202;-62
2023/11/24 01:42:17;;;;;;;8.90;2.33;;;6.20;99.90;;;;;;5056793;28;20372;-61
2023/11/24 01:44:44;;;;;;;6.60;2.20;;;6.10;99.90;;;;;;5056649;28;20285;-62
2023/11/24 01:47:11;;;;;;;7.10;2.50;;;6.10;99.90;;;;;;5057466;28;20197;-62
2023/11/24 01:49:39;;;;;;;6.65;1.50;;;6.10;99.90;;;;;;5063399;28;20201;-62
2023/11/24 01:52:07;;;;;;;6.57;1.75;;;6.00;99.90;;;;;;5061963;28;20204;-62
2023/11/24 01:54:36;;;;;;;6.15;2.40;;;5.90;99.90;;;;;;5061297;28;20222;-62
2023/11/24 01:57:07;;;;;;;6.95;1.85;;;5.90;99.90;;;;;;5060244;28;20268;-62
2023/11/24 01:59:34;;;;;;;15.07;3.00;;;5.90;99.90;;;;;;5060902;28;20224;-62
2023/11/24 02:02:00;;;;;;;6.50;2.40;;;5.80;99.90;;;;;;5058588;28;20208;-63
2023/11/24 02:04:27;;;;;;;12.80;2.72;;;5.80;99.90;;;;;;5057988;28;20222;-63
2023/11/24 02:06:56;;;;;;;4.03;1.92;;;5.80;99.90;;;;;;5059745;28;20201;-62
2023/11/24 02:09:23;;;;;;;12.98;2.92;;;5.80;99.90;;;;;;5058376;28;20686;-62
2023/11/24 02:11:50;;;;;;;9.35;2.10;;;5.80;99.90;;;;;;5057475;28;20614;-62
2023/11/24 02:14:18;;;;;;;10.85;2.20;;;5.80;99.90;;;;;;5057130;28;20611;-62
2023/11/24 02:16:45;;;;;;;13.80;2.55;;;5.90;99.90;;;;;;5057956;28;20694;-62
2023/11/24 02:19:13;;;;;;;7.38;2.38;;;5.90;99.90;;;;;;5058617;28;20217;-62
2023/11/24 02:21:40;;;;;;;7.85;2.20;;;5.90;99.90;;;;;;5057744;28;20205;-62
2023/11/24 02:24:08;;;;;;;15.90;2.65;;;5.90;99.90;;;;;;5057157;28;20309;-62
2023/11/24 02:26:35;;;;;;;9.38;2.42;;;6.00;99.90;;;;;;5056419;28;20201;-63
2023/11/24 02:29:02;;;;;;;8.85;2.22;;;6.00;99.90;;;;;;5055965;28;20193;-62
2023/11/24 02:31:32;;;;;;;13.82;3.70;;;6.00;99.90;;;;;;5055995;28;20612;-62
2023/11/24 02:33:59;;;;;;;12.90;3.47;;;6.00;99.90;;;;;;5057815;28;20230;-62
2023/11/24 02:36:27;;;;;;;9.18;2.75;;;6.00;99.90;;;;;;5056245;28;20209;-62
2023/11/24 02:38:54;;;;;;;12.93;2.35;;;5.90;99.90;;;;;;5055274;28;20217;-61
2023/11/24 02:41:22;;;;;;;10.00;2.63;;;5.90;99.90;;;;;;5060555;28;20208;-62
2023/11/24 02:43:49;;;;;;;11.98;2.35;;;5.90;99.90;;;;;;5071939;28;20304;-62
2023/11/24 02:46:16;;;;;;;15.93;3.85;;;5.90;99.90;;;;;;5055975;28;20208;-62
2023/11/24 02:48:43;;;;;;;6.38;2.25;;;5.80;99.90;;;;;;5056205;28;20570;-62
2023/11/24 02:51:10;;;;;;;14.63;3.17;;;5.80;99.90;;;;;;5054317;28;20205;-62
2023/11/24 02:53:37;;;;;;;9.70;2.90;;;5.80;99.90;;;;;;5055021;28;20213;-61
2023/11/24 02:56:05;;;;;;;11.95;2.75;;;5.80;99.90;;;;;;5054805;28;20205;-63
2023/11/24 02:58:34;;;;;;;11.30;2.38;;;5.80;99.90;;;;;;5054874;28;20229;-62
2023/11/24 03:01:02;;;;;;;15.63;2.95;;;5.90;99.90;;;;;;5054822;28;20248;-62
2023/11/24 03:03:28;;;;;;;11.15;2.97;;;5.90;99.90;;;;;;5054601;28;20198;-62
2023/11/24 03:05:56;;;;;;;9.20;3.30;;;5.90;99.90;;;;;;5054878;28;20253;-61
2023/11/24 03:08:23;;;;;;;8.07;2.60;;;6.00;99.90;;;;;;5055183;28;20206;-62
2023/11/24 03:10:50;;;;;;;5.93;2.28;;;6.00;99.90;;;;;;5056147;28;20301;-62
2023/11/24 03:13:17;;;;;;;12.32;2.05;;;6.00;99.90;;;;;;5054805;28;20206;-62
2023/11/24 03:15:46;;;;;;;10.95;2.80;;;5.90;99.90;;;;;;5093831;22;20229;-63
2023/11/24 03:18:13;;;;;;;9.23;2.97;;;5.90;99.90;;;;;;5075214;28;20590;-64
2023/11/24 03:20:40;;;;;;;14.50;2.60;;;5.90;99.90;;;;;;5075024;28;20228;-63
2023/11/24 03:23:07;;;;;;;13.32;2.83;;;5.90;99.90;;;;;;5075768;28;20207;-64
2023/11/24 03:25:34;;;;;;;19.30;5.07;;;5.90;99.90;;;;;;5075675;28;20221;-64
2023/11/24 03:28:01;;;;;;;6.15;2.58;;;5.90;99.90;;;;;;5083157;28;20200;-64
2023/11/24 03:30:28;;;;;;;18.73;3.67;;;5.90;99.90;;;;;;5082873;28;20200;-64
2023/11/24 03:32:56;;;;;;;8.32;1.98;;;5.90;99.90;;;;;;5082588;28;20212;-65
2023/11/24 03:35:23;;;;;;;11.90;2.38;;;6.00;99.90;;;;;;5080231;28;20221;-66
2023/11/24 03:37:50;;;;;;;8.27;2.72;;;6.00;99.90;;;;;;5076787;28;20244;-64
2023/11/24 03:40:17;;;;;;;9.13;3.03;;;6.00;99.90;;;;;;5076592;28;20207;-64
2023/11/24 03:42:44;;;;;;;9.88;2.65;;;5.90;99.90;;;;;;5077015;28;20697;-64
2023/11/24 03:45:11;;;;;;;8.82;3.45;;;5.90;99.90;;;;;;5076326;28;20225;-63
2023/11/24 03:47:39;;;;;;;9.10;2.58;;;5.90;99.90;;;;;;5076832;28;20310;-65
2023/11/24 03:50:08;;;;;;;10.27;2.88;;;5.90;99.90;;;;;;5075840;28;20204;-64
2023/11/24 03:52:35;;;;;;;11.13;2.80;;;5.90;99.90;;;;;;5075710;28;20201;-64
2023/11/24 03:55:01;;;;;;;7.90;2.35;;;5.90;99.90;;;;;;5075184;28;20278;-64
2023/11/24 03:57:28;;;;;;;12.77;2.85;;;5.90;99.90;;;;;;5075127;28;20205;-64
2023/11/24 03:59:55;;;;;;;8.32;2.88;;;5.90;99.90;;;;;;5076146;28;20233;-64
2023/11/24 04:02:21;;;;;;;9.88;2.50;;;5.80;99.90;;;;;;5076094;28;20201;-64
2023/11/24 04:04:48;;;;;;;12.27;2.33;;;5.80;99.90;;;;;;5074949;28;20225;-65
2023/11/24 04:07:16;;;;;;;12.48;3.58;;;5.80;99.90;;;;;;5074029;28;20207;-64
2023/11/24 04:12:38;;;;;;;5.85;2.05;;;5.90;99.90;;;;;;5092815;27;20603;-64
2023/11/24 04:15:05;;;;;;;8.27;2.60;;;5.90;99.90;;;;;;5092623;28;20230;-64
2023/11/24 04:17:32;;;;;;;9.73;2.35;;;5.90;99.90;;;;;;5094838;28;20236;-64
2023/11/24 04:19:58;;;;;;;9.60;2.15;;;5.90;99.90;;;;;;5094532;28;20203;-65
2023/11/24 04:22:25;;;;;;;9.80;2.40;;;5.80;99.90;;;;;;5092245;28;20188;-64
2023/11/24 04:24:52;;;;;;;7.30;2.03;;;5.70;99.90;;;;;;5092294;28;20220;-64
2023/11/24 04:27:19;;;;;;;8.20;2.67;;;5.50;99.90;;;;;;5095275;28;20216;-65
2023/11/24 04:29:47;;;;;;;6.88;2.03;;;5.50;99.90;;;;;;5095157;28;20298;-64
2023/11/24 04:32:14;;;;;;;7.70;1.90;;;5.30;99.90;;;;;;5095646;28;20216;-64
2023/11/24 04:34:41;;;;;;;7.85;2.10;;;5.30;99.90;;;;;;5099089;28;20220;-65
2023/11/24 04:37:08;;;;;;;11.80;3.42;;;5.20;99.90;;;;;;5100061;28;20303;-65
2023/11/24 04:39:35;;;;;;;6.20;2.65;;;5.10;99.90;;;;;;5100036;28;20211;-65
2023/11/24 04:42:02;;;;;;;7.18;2.65;;;5.10;99.90;;;;;;5096785;28;20201;-63
2023/11/24 04:44:28;;;;;;;8.07;2.47;;;5.10;99.90;;;;;;5095273;28;20220;-65
2023/11/24 04:46:57;;;;;;;7.75;1.88;;;5.00;99.90;;;;;;5094171;28;20211;-63
2023/11/24 04:49:23;;;;;;;10.23;2.78;;;5.00;99.90;;;;;;5093361;28;20211;-63
2023/11/24 04:51:50;;;;;;;6.55;2.03;;;4.90;99.90;;;;;;5091646;28;20227;-63
2023/11/24 04:54:17;;;;;;;10.50;2.30;;;4.90;99.90;;;;;;5091893;28;20212;-63
2023/11/24 04:56:44;;;;;;;9.18;2.40;;;4.90;99.90;;;;;;5097390;28;20200;-64
2023/11/24 04:59:11;;;;;;;17.05;3.10;;;4.90;99.90;;;;;;5097950;28;20205;-64
2023/11/24 05:01:37;;;;;;;9.20;2.95;;;4.90;99.90;;;;;;5102631;22;20238;-61
2023/11/24 05:04:06;;;;;;;11.93;2.22;;;5.00;99.90;;;;;;5050440;28;20554;-61
2023/11/24 05:06:32;;;;;;;7.28;1.75;;;4.90;99.90;;;;;;5049262;28;20782;-61
2023/11/24 05:09:01;;;;;;;9.80;2.45;;;4.90;99.90;;;;;;5049331;28;20228;-62
2023/11/24 05:11:28;;;;;;;7.53;2.10;;;4.90;99.90;;;;;;5049109;28;20257;-62
2023/11/24 05:13:55;;;;;;;3.58;1.70;;;4.90;99.90;;;;;;5049523;28;20210;-63
2023/11/24 05:16:22;;;;;;;8.38;2.13;;;4.90;99.90;;;;;;5049406;28;20202;-63
2023/11/24 05:18:49;;;;;;;3.55;2.30;;;4.90;99.90;;;;;;5050126;28;20229;-62
2023/11/24 05:21:17;;;;;;;9.63;2.63;;;4.80;99.90;;;;;;5049357;28;20268;-62
2023/11/24 05:23:44;;;;;;;6.32;2.08;;;4.80;99.90;;;;;;5037162;28;20368;-62
2023/11/24 05:26:11;;;;;;;3.97;1.35;;;4.80;99.90;;;;;;5035867;28;20202;-62
2023/11/24 05:28:37;;;;;;;2.90;1.30;;;4.80;99.90;;;;;;5035707;28;20202;-62
2023/11/24 05:31:04;;;;;;;4.57;1.10;;;4.80;99.90;;;;;;5035168;28;20222;-64
2023/11/24 05:33:32;;;;;;;5.50;1.50;;;4.70;99.90;;;;;;5035577;28;20260;-62
2023/11/24 05:35:59;;;;;;;6.70;1.45;;;4.70;99.90;;;;;;5035488;28;20691;-62
2023/11/24 05:38:27;;;;;;;1.33;1.00;;;4.60;99.90;;;;;;5035645;28;20687;-63
2023/11/24 05:40:54;;;;;;;3.75;1.20;;;4.60;99.90;;;;;;5035726;28;20203;-62
2023/11/24 05:43:21;;;;;;;3.15;1.15;;;4.60;99.90;;;;;;5035371;28;20650;-62
2023/11/24 05:45:47;;;;;;;8.15;1.45;;;4.50;99.90;;;;;;5035238;28;20206;-63
2023/11/24 05:48:14;;;;;;;0.90;0.90;;;4.50;99.90;;;;;;5035604;28;20205;-63
2023/11/24 05:50:41;;;;;;;3.58;1.00;;;4.40;99.90;;;;;;5035485;28;20257;-62
2023/11/24 05:53:07;;;;;;;7.22;1.30;;;4.40;99.90;;;;;;5035245;28;20204;-61
2023/11/24 05:55:36;;;;;;;2.88;1.35;;;4.40;99.90;;;;;;5035416;28;20206;-61
2023/11/24 05:58:05;;;;;;;1.98;1.77;;;4.30;99.90;;;;;;5035631;28;20306;-62
2023/11/24 06:00:32;;;;;;;6.15;1.75;;;4.30;99.90;;;;;;5035546;28;20206;-62
2023/11/24 06:02:59;;;;;;;9.05;1.50;;;4.30;99.90;;;;;;5035379;28;20226;-63
2023/11/24 06:05:25;;;;;;;2.75;1.50;;;4.30;99.90;;;;;;5035278;28;20214;-62
2023/11/24 06:07:52;;;;;;;7.28;2.15;;;4.30;99.90;;;;;;5035129;28;20213;-61
2023/11/24 06:10:19;;;;;;;13.30;3.13;;;4.30;99.90;;;;;;5035225;28;20202;-63
2023/11/24 06:12:47;;;;;;;5.38;1.70;;;4.30;99.90;;;;;;5034596;28;20695;-64
2023/11/24 06:15:13;;;;;;;6.20;1.83;;;4.30;99.90;;;;;;5035218;28;20202;-64
2023/11/24 06:17:40;;;;;;;3.35;1.23;;;4.30;99.90;;;;;;5035148;28;20665;-61
2023/11/24 06:20:10;;;;;;;5.95;1.50;;;4.30;99.90;;;;;;5035492;28;20206;-62
2023/11/24 06:22:37;;;;;;;12.45;2.00;;;4.30;99.90;;;;;;5034883;28;20305;-61
2023/11/24 06:25:05;;;;;;;3.67;1.52;;;4.40;99.90;;;;;;5034617;28;20672;-61
2023/11/24 06:27:31;;;;;;;9.55;1.50;;;4.40;99.90;;;;;;5035339;28;20202;-61
2023/11/24 06:30:01;;;;;;;9.82;2.05;;;4.50;99.90;;;;;;5034983;28;20202;-63
2023/11/24 06:32:27;;;;;;;9.18;2.42;;;4.50;99.90;;;;;;5047561;28;20257;-61
2023/11/24 06:34:54;;;;;;;7.75;1.60;;;4.60;99.90;;;;;;5041525;28;20203;-62
2023/11/24 06:37:21;;;;;;;9.25;1.88;;;4.60;99.90;;;;;;5035367;28;20210;-62
2023/11/24 06:39:48;;;;;;;11.93;1.73;;;4.60;99.90;;;;;;5034906;28;20249;-63
2023/11/24 06:42:14;;;;;;;3.30;1.50;;;4.60;99.90;;;;;;5034777;28;20218;-62
2023/11/24 06:44:41;;;;;;;6.07;1.42;;;4.70;99.90;;;;;;5034921;28;20576;-62
2023/11/24 06:47:09;;;;;;;3.30;1.45;;;4.70;99.90;;;;;;5034837;28;20209;-63
2023/11/24 06:49:36;;;;;;;4.22;1.73;;;4.70;99.90;;;;;;5034466;28;20210;-62
2023/11/24 06:52:03;;;;;;;3.33;2.03;;;4.70;99.90;;;;;;5034880;28;20222;-62
2023/11/24 06:54:30;;;;;;;2.33;1.90;;;4.70;99.90;;;;;;5034459;28;20203;-62
2023/11/24 06:56:57;;;;;;;2.85;1.10;;;4.70;99.90;;;;;;5034395;28;20256;-61
2023/11/24 06:59:25;;;;;;;5.10;1.50;;;4.80;99.90;;;;;;5034280;28;20210;-61
2023/11/24 07:01:53;;;;;;;5.85;1.70;;;4.80;99.90;;;;;;5034236;28;20440;-62
2023/11/24 07:04:23;;;;;;;9.10;1.90;;;4.80;99.90;;;;;;5034941;28;20203;-61
2023/11/24 07:06:50;;;;;;;4.03;1.38;;;4.80;99.90;;;;;;5034918;28;20297;-61
2023/11/24 07:09:16;;;;;;;4.82;1.10;;;4.80;99.90;;;;;;5035920;28;20210;-61
2023/11/24 07:11:43;;;;;;;4.40;1.50;;;4.80;99.90;;;;;;5038979;28;20315;-62
2023/11/24 07:14:11;;;;;;;6.28;1.20;;;4.80;99.90;;;;;;5037900;28;20206;-62
2023/11/24 07:16:37;;;;;;;7.13;2.42;;;4.80;99.90;;;;;;5040743;28;20290;-62
2023/11/24 07:19:05;;;;;;;4.50;1.38;;;4.80;99.90;;;;;;5041586;28;20198;-61
2023/11/24 07:21:34;;;;;;;7.30;2.10;;;4.90;99.90;;;;;;5038456;28;20245;-62
2023/11/24 07:24:01;;;;;;;3.78;1.25;;;4.90;99.90;;;;;;5038509;28;20218;-62
2023/11/24 07:26:29;;;;;;;7.60;1.48;;;4.80;99.90;;;;;;5033687;28;20198;-62
2023/11/24 07:28:56;;;;;;;3.05;1.20;;;4.80;99.90;;;;;;5033439;28;20198;-61
2023/11/24 07:31:25;;;;;;;6.28;1.50;;;4.70;99.90;;;;;;5033263;28;20218;-62
2023/11/24 07:33:52;;;;;;;4.40;1.40;;;4.70;99.90;;;;;;5033747;28;20210;-62
2023/11/24 07:36:19;;;;;;;4.22;1.48;;;4.70;99.90;;;;;;5033641;28;20699;-61
2023/11/24 07:38:48;;;;;;;2.75;1.15;;;4.70;99.90;;;;;;5034506;28;20202;-61
2023/11/24 07:41:15;;;;;;;3.83;1.70;;;4.70;99.90;;;;;;5034573;28;20225;-61
2023/11/24 07:43:42;;;;;;;3.40;1.60;;;4.70;99.90;;;;;;5034818;28;20203;-61
2023/11/24 07:46:11;;;;;;;6.47;1.85;;;4.70;99.90;;;;;;5034327;28;20207;-61
2023/11/24 07:48:38;;;;;;;6.20;1.60;;;4.70;99.90;;;;;;5033111;28;20198;-61
2023/11/24 07:51:05;;;;;;;8.85;1.85;;;4.80;99.90;;;;;;5032954;28;20233;-60
2023/11/24 07:53:32;;;;;;;6.75;1.92;;;4.80;99.90;;;;;;5033363;28;20226;-61
2023/11/24 07:56:01;;;;;;;10.05;2.58;;;4.80;99.90;;;;;;5033477;28;20198;-61
2023/11/24 07:58:29;;;;;;;2.75;1.48;;;4.90;99.90;;;;;;5033598;28;20198;-61
2023/11/24 08:00:56;;;;;;;3.92;1.60;;;4.90;99.90;;;;;;5033294;28;20316;-61
2023/11/24 08:03:24;;;;;;;2.67;1.70;;;4.90;99.90;;;;;;5034308;28;20194;-61
2023/11/24 08:05:52;;;;;;;4.18;2.22;;;4.90;99.90;;;;;;5034913;28;20229;-60
2023/11/24 08:08:20;;;;;;;9.35;2.65;;;5.00;99.90;;;;;;5036136;28;20711;-60
2023/11/24 08:10:47;;;;;;;5.28;1.70;;;5.00;99.90;;;;;;5036091;28;20202;-63
2023/11/24 08:13:15;;;;;;;10.05;1.88;;;5.00;99.90;;;;;;5036111;28;20588;-65
2023/11/24 08:15:41;;;;;;;5.30;2.58;;;5.00;99.90;;;;;;5036665;28;20226;-62
2023/11/24 08:18:08;;;;;;;4.00;1.50;;;5.00;99.90;;;;;;5036058;28;20206;-61
2023/11/24 08:20:35;;;;;;;6.78;1.90;;;5.00;99.90;;;;;;5036146;28;20214;-62
2023/11/24 08:23:01;;;;;;;4.35;1.73;;;5.10;99.90;;;;;;5040571;28;20218;-61
2023/11/24 08:25:28;;;;;;;3.35;1.40;;;5.10;99.90;;;;;;5036607;28;20572;-60
2023/11/24 08:27:56;;;;;;;3.28;1.40;;;5.10;99.90;;;;;;5033652;28;20206;-61
2023/11/24 08:30:24;;;;;;;4.47;1.30;;;5.10;99.90;;;;;;5033344;28;20198;-60
2023/11/24 08:32:51;;;;;;;8.45;1.90;;;5.10;99.90;;;;;;5033496;28;20241;-60
2023/11/24 08:35:20;;;;;;;4.30;1.33;;;5.10;99.90;;;;;;5033568;28;20206;-60
2023/11/24 08:37:46;;;;;;;5.10;1.50;;;5.00;99.90;;;;;;5033245;28;20206;-60
2023/11/24 08:40:16;;;;;;;8.98;1.88;;;5.00;99.90;;;;;;5033659;28;20209;-61
2023/11/24 08:42:44;;;;;;;4.90;1.30;;;5.00;99.90;;;;;;5033723;28;20257;-62
2023/11/24 08:45:13;;;;;;;2.85;1.00;;;5.00;99.90;;;;;;5033163;28;20207;-61
2023/11/24 08:47:42;;;;;;;4.80;1.73;;;5.00;99.90;;;;;;5033231;28;20238;-61
2023/11/24 08:50:10;;;;;;;5.40;1.15;;;5.00;99.90;;;;;;5032988;28;20202;-61
2023/11/24 08:52:37;;;;;;;4.05;1.73;;;5.00;99.90;;;;;;5032864;28;20265;-60
2023/11/24 08:55:05;;;;;;;6.78;1.65;;;5.00;99.90;;;;;;5032678;28;20202;-61
2023/11/24 08:57:32;;;;;;;3.53;1.65;;;5.00;99.90;;;;;;5033452;28;20207;-61
2023/11/24 08:59:59;;;;;;;5.47;1.60;;;5.10;99.90;;;;;;5037640;28;20206;-61
2023/11/24 09:02:28;;;;;;;2.60;1.15;;;5.10;99.90;;;;;;5036377;28;20752;-61
2023/11/24 09:04:56;;;;;;;2.65;1.25;;;5.10;99.90;;;;;;5037115;28;20238;-62
2023/11/24 09:07:26;;;;;;;9.20;1.65;;;5.10;99.90;;;;;;5036240;28;20674;-63
2023/11/24 09:09:53;;;;;;;4.45;1.35;;;5.10;99.90;;;;;;5036755;28;20182;-61
2023/11/24 09:12:20;;;;;;;3.40;1.10;;;5.10;99.90;;;;;;5036331;28;20316;-61
2023/11/24 09:14:47;;;;;;;4.53;0.90;;;5.10;99.90;;;;;;5036371;28;20256;-62
2023/11/24 09:17:13;;;;;;;4.15;1.25;;;5.00;99.90;;;;;;5036277;28;20198;-63
2023/11/24 09:19:40;;;;;;;2.50;0.98;;;5.00;99.90;;;;;;5036140;28;20225;-62
2023/11/24 09:22:10;;;;;;;2.95;1.30;;;5.00;99.90;;;;;;5035863;28;20696;-61
2023/11/24 09:24:37;;;;;;;2.08;0.93;;;5.10;99.90;;;;;;5035935;28;20211;-62
2023/11/24 09:27:04;;;;;;;2.75;1.38;;;5.10;99.90;;;;;;5035881;28;20203;-62
2023/11/24 09:29:31;;;;;;;9.00;1.60;;;5.10;99.90;;;;;;5036272;28;20224;-62
2023/11/24 09:31:58;;;;;;;7.57;1.63;;;5.10;99.90;;;;;;5035539;28;20261;-63
2023/11/24 09:34:25;;;;;;;4.78;1.75;;;5.20;99.90;;;;;;5036168;28;20229;-61
2023/11/24 09:36:52;;;;;;;4.80;1.17;;;5.20;99.90;;;;;;5036065;28;20234;-61
2023/11/24 09:39:25;;;;;;;2.30;1.38;;;5.30;99.90;;;;;;5035902;28;20556;-62
2023/11/24 09:41:53;;;;;;;5.55;1.50;;;5.30;99.90;;;;;;5035838;28;20230;-61
2023/11/24 09:44:21;;;;;;;3.33;1.30;;;5.30;99.90;;;;;;5035681;28;20595;-62
2023/11/24 09:46:48;;;;;;;2.00;1.08;;;5.40;99.90;;;;;;5036138;28;20221;-61
2023/11/24 09:49:16;;;;;;;4.28;1.40;;;5.40;99.90;;;;;;5035312;28;20672;-61
2023/11/24 09:51:43;;;;;;;4.40;1.20;;;5.50;99.90;;;;;;5035703;28;20222;-62
2023/11/24 09:54:12;;;;;;;4.25;1.70;;;5.70;99.90;;;;;;5035686;28;20223;-61
2023/11/24 09:56:43;;;;;;;5.03;1.70;;;5.80;99.90;;;;;;5035569;28;20671;-61
2023/11/24 09:59:10;;;;;;;6.13;1.85;;;5.90;99.90;;;;;;5034956;28;20655;-62
2023/11/24 10:01:37;;;;;;;4.65;1.30;;;6.00;99.90;;;;;;5034932;28;20230;-61
2023/11/24 10:04:06;;;;;;;9.98;1.55;;;6.00;99.90;;;;;;5034863;28;20202;-62
2023/11/24 10:06:34;;;;;;;6.13;1.65;;;5.90;99.90;;;;;;5034657;28;20532;-63
2023/11/24 10:09:05;;;;;;;3.65;1.25;;;5.90;99.90;;;;;;5035105;28;20198;-61
2023/11/24 10:11:33;;;;;;;4.30;1.50;;;5.70;99.90;;;;;;5035230;28;20579;-62
2023/11/24 10:14:04;;;;;;;3.92;1.50;;;5.60;99.90;;;;;;5034757;28;20222;-61
2023/11/24 10:16:31;;;;;;;4.90;1.55;;;5.40;99.90;;;;;;5034905;28;20207;-62
2023/11/24 10:19:00;;;;;;;9.48;1.63;;;5.30;99.90;;;;;;5044339;28;20229;-63
2023/11/24 10:21:28;;;;;;;1.77;1.02;;;5.20;99.90;;;;;;5037031;28;20292;-62
2023/11/24 10:23:56;;;;;;;2.05;1.30;;;5.10;99.90;;;;;;5035229;28;20240;-62
2023/11/24 10:26:25;;;;;;;5.38;2.55;;;5.10;99.90;;;;;;5035385;28;20214;-62
2023/11/24 10:28:52;;;;;;;3.42;1.13;;;5.10;99.90;;;;;;5034631;28;20288;-62
2023/11/24 10:31:20;;;;;;;4.88;1.33;;;5.10;99.90;;;;;;5035157;28;20218;-62
2023/11/24 10:33:47;;;;;;;1.65;1.02;;;5.10;99.90;;;;;;5035066;28;20226;-63
2023/11/24 10:36:16;;;;;;;4.30;1.20;;;5.10;99.90;;;;;;5036043;28;20302;-62
2023/11/24 10:38:44;;;;;;;2.95;1.50;;;5.10;99.90;;;;;;5034301;28;20644;-63
2023/11/24 10:41:18;;;;;;;5.00;1.15;;;5.10;99.90;;;;;;5034272;28;20214;-61
2023/11/24 10:43:49;;;;;;;5.88;1.17;;;5.00;99.90;;;;;;5034626;28;20183;-61
2023/11/24 10:46:20;;;;;;;5.70;1.90;;;5.00;99.90;;;;;;5034970;28;20218;-62
2023/11/24 10:48:54;;;;;;;4.78;1.80;;;5.00;99.90;;;;;;5034768;28;20195;-62
2023/11/24 10:51:31;;;;;;;9.45;1.85;;;5.10;99.90;;;;;;5034403;28;20716;-62
2023/11/24 10:54:03;;;;;;;3.63;1.17;;;5.20;99.90;;;;;;5034310;28;20206;-61
2023/11/24 10:56:32;;;;;;;5.63;1.58;;;5.30;99.90;;;;;;5034652;28;20198;-62
2023/11/24 10:59:01;;;;;;;5.80;1.95;;;5.30;99.90;;;;;;5034821;28;20206;-61
2023/11/24 11:01:28;;;;;;;8.48;1.95;;;5.50;99.90;;;;;;5035498;28;20236;-62
2023/11/24 11:03:56;;;;;;;5.32;1.40;;;5.60;99.90;;;;;;5034873;28;20221;-62
2023/11/24 11:06:38;;;;;;;5.53;2.30;;;5.80;99.90;;;;;;5034584;28;20199;-62
2023/11/24 11:09:19;;;;;;;7.43;1.60;;;5.80;99.90;;;;;;5035734;28;20191;-62
2023/11/24 11:12:29;;;;;;;5.38;2.03;;;5.90;99.90;;;;;;5037285;28;20277;-62
2023/11/24 11:14:56;;;;;;;4.22;1.60;;;5.90;99.90;;;;;;5017647;28;20547;-62
2023/11/24 11:17:25;;;;;;;6.43;1.90;;;6.00;99.90;;;;;;5035945;28;20202;-64
2023/11/24 11:19:59;;;;;;;6.25;1.75;;;6.10;99.90;;;;;;5036986;28;20316;-62
2023/11/24 11:22:29;;;;;;;7.88;1.50;;;6.10;99.90;;;;;;5034502;28;20218;-62
2023/11/24 11:25:17;;;;;;;4.03;1.30;;;6.10;99.90;;;;;;5034942;28;20629;-61
2023/11/24 11:27:46;;;;;;;5.25;1.35;;;6.10;99.90;;;;;;5034657;28;20587;-62
2023/11/24 11:30:21;;;;;;;3.40;1.58;;;6.10;99.90;;;;;;5034667;28;20225;-63
2023/11/24 11:33:01;;;;;;;5.57;1.58;;;6.10;99.90;;;;;;5034412;28;20226;-64
2023/11/24 11:35:29;;;;;;;8.73;1.70;;;6.10;99.90;;;;;;5033941;28;20191;-63
2023/11/24 11:37:59;;;;;;;4.25;1.40;;;6.20;99.90;;;;;;5033762;28;20674;-64
2023/11/24 11:40:27;;;;;;;7.35;2.00;;;6.20;99.90;;;;;;5034605;28;20203;-61
2023/11/24 11:42:58;;;;;;;5.40;1.20;;;6.20;99.90;;;;;;5034163;28;20214;-62
2023/11/24 11:45:29;;;;;;;5.10;1.50;;;6.30;99.90;;;;;;5033525;28;20560;-61
2023/11/24 11:47:58;;;;;;;7.35;2.13;;;6.40;99.90;;;;;;5033690;28;20187;-62
2023/11/24 11:50:26;;;;;;;7.43;1.50;;;6.40;99.90;;;;;;5033803;28;20206;-61
2023/11/24 11:52:57;;;;;;;3.83;1.45;;;6.50;99.90;;;;;;5033027;28;20245;-61
2023/11/24 11:55:25;;;;;;;11.30;2.00;;;6.50;99.90;;;;;;5033833;28;20187;-61
2023/11/24 11:57:54;;;;;;;5.43;1.80;;;6.50;99.90;;;;;;5033326;28;20672;-60
2023/11/24 12:00:26;;;;;;;7.82;1.92;;;6.50;99.90;;;;;;5032793;28;20210;-61
2023/11/24 12:02:52;;;;;;;5.85;1.95;;;6.50;99.90;;;;;;5033407;28;20234;-62
2023/11/24 12:05:21;;;;;;;6.50;1.85;;;6.50;99.90;;;;;;5033798;28;20201;-62
2023/11/24 12:07:48;;;;;;;4.28;2.00;;;6.50;99.90;;;;;;5033648;28;20202;-62
2023/11/24 12:10:15;;;;;;;6.05;2.55;;;6.50;99.90;;;;;;5033194;28;20202;-62
2023/11/24 12:12:42;;;;;;;3.53;1.77;;;6.60;99.90;;;;;;5033085;28;20222;-62
2023/11/24 12:15:17;;;;;;;6.28;1.95;;;6.70;99.90;;;;;;5032846;28;20202;-62
2023/11/24 12:17:44;;;;;;;9.63;1.92;;;6.70;99.90;;;;;;5033237;28;20666;-62
2023/11/24 12:20:14;;;;;;;3.95;1.15;;;6.60;99.90;;;;;;5038990;28;20203;-62
2023/11/24 12:22:42;;;;;;;6.53;2.10;;;6.30;99.90;;;;;;5035926;28;20229;-63
2023/11/24 12:25:12;;;;;;;5.07;1.27;;;6.10;99.90;;;;;;5033566;28;20564;-62
2023/11/24 12:27:40;;;;;;;4.68;1.90;;;5.80;99.90;;;;;;5033527;28;20191;-61
2023/11/24 12:30:10;;;;;;;1.70;1.25;;;5.50;99.90;;;;;;5033291;28;20214;-62
2023/11/24 12:32:39;;;;;;;2.70;1.85;;;5.30;99.90;;;;;;5034376;28;20734;-62
2023/11/24 12:35:08;;;;;;;2.70;0.98;;;5.10;99.90;;;;;;5037921;28;20765;-67
2023/11/24 12:37:35;;;;;;;6.75;1.77;;;5.00;99.90;;;;;;5041283;28;20202;-65
2023/11/24 12:40:02;;;;;;;4.28;1.75;;;4.80;99.90;;;;;;5039803;28;20678;-65
2023/11/24 12:42:29;;;;;;;9.20;1.80;;;4.70;99.90;;;;;;5040226;28;20222;-65
2023/11/24 12:44:56;;;;;;;1.77;1.10;;;4.60;99.90;;;;;;5039037;28;20198;-63
2023/11/24 12:47:24;;;;;;;1.73;1.25;;;4.60;99.90;;;;;;5039270;28;20202;-62
2023/11/24 12:49:59;;;;;;;2.78;1.55;;;4.50;99.90;;;;;;5038579;28;20673;-63
2023/11/24 12:52:27;;;;;;;7.65;1.70;;;4.50;99.90;;;;;;5038570;28;20672;-61
2023/11/24 12:54:55;;;;;;;6.13;1.60;;;4.40;99.90;;;;;;5038126;28;20440;-63
2023/11/24 12:57:22;;;;;;;5.40;2.05;;;4.40;99.90;;;;;;5037276;28;20230;-61
2023/11/24 12:59:49;;;;;;;4.15;1.60;;;4.40;99.90;;;;;;5037708;28;20198;-62
2023/11/24 13:02:16;;;;;;;2.70;1.33;;;4.30;99.90;;;;;;5036474;28;20230;-62